Terminal Aerodrome Forecast
Issued by NWS

Home | Current Version | Previous Version | Text Only | Print | Product List | Glossary On
Versions: 1 2 3 4 5 6 7 8 9 10 11 12 13 14 15 16 17 18 19
000
FTUS41 KILN 021256 AAA
TAFLCK
TAF AMD
KLCK 021256Z 0213/0312 28005KT P6SM VCTS BKN040CB
      TEMPO 0213/0215 5SM -TSRA OVC035CB
     FM030000 VRB03KT P6SM SCT050 SCT100
     FM030700 00000KT 4SM BR SCT100=

USA.gov is the U.S. government's official web portal to all federal, state and local government web resources and services.